Benllech, United Kingdom
Current Conditions -  °F | °C
As of 1:50 AM on Monday 22 Dec 2014 (Local Time) from EGOV Reporting Station
Haze Haze  
Wind Chill: 54°   Ceiling: 16000
Heat Index: 54°   Visibility: 6mi
Dew Point: 50°   Wind: 29mph
Humidity: 88%   Direction: 210°SSW
Pressure: 29.91"   Gusts: NA
Location:  53.32°N, 4.23°W
Report Text: EGOV 220150Z AUTO 21025KT 9000 HZ FEW009/// SCT025/// BKN160/// 12/10 Q1013
Loading
Personal Weather Stations






























Interactive Weather Map New forecast layout! Learn more

10-Day Weather Forecast

Advertisements
Track Severe Weather on mobile